createdAt,value
2023-02-21T00:01:19.193Z,4.10
2023-02-21T00:05:19.736Z,4.28
2023-02-21T00:09:20.165Z,8.57
2023-02-21T00:13:20.711Z,4.90
2023-02-21T00:17:21.184Z,4.53
2023-02-21T00:21:21.753Z,3.72
2023-02-21T00:25:22.170Z,5.05
2023-02-21T00:29:22.816Z,5.05
2023-02-21T00:33:23.236Z,4.05
2023-02-21T00:37:23.496Z,3.00
2023-02-21T00:41:24.174Z,3.92
2023-02-21T00:45:25.018Z,4.07
2023-02-21T00:49:25.506Z,4.22
2023-02-21T00:53:26.009Z,8.00
2023-02-21T00:57:26.395Z,4.07
2023-02-21T01:01:26.913Z,4.00
2023-02-21T01:05:27.233Z,4.30
2023-02-21T01:09:27.380Z,4.00
2023-02-21T01:13:28.127Z,4.43
2023-02-21T01:17:28.594Z,5.22
2023-02-21T01:21:33.412Z,4.95
2023-02-21T01:25:34.505Z,4.68
2023-02-21T01:29:35.035Z,6.28
2023-02-21T01:33:35.620Z,5.55
2023-02-21T01:37:36.128Z,4.28
2023-02-21T01:41:36.629Z,3.97
2023-02-21T01:45:39.581Z,4.72
2023-02-21T01:49:40.983Z,3.60
2023-02-21T01:53:43.849Z,4.22
2023-02-21T01:57:44.351Z,4.45
2023-02-21T02:02:10.633Z,5.40
2023-02-21T02:06:15.211Z,4.15
2023-02-21T02:10:15.900Z,5.72
2023-02-21T02:14:22.594Z,4.13
2023-02-21T02:18:14.524Z,4.78
2023-02-21T02:22:08.456Z,5.85
2023-02-21T02:26:14.312Z,5.43
2023-02-21T02:30:08.218Z,3.38
2023-02-21T02:34:27.969Z,6.28
2023-02-21T02:38:38.873Z,5.10
2023-02-21T02:42:39.092Z,4.32
2023-02-21T02:46:25.623Z,5.13
2023-02-21T02:50:09.592Z,3.63
2023-02-21T02:53:51.304Z,3.85
2023-02-21T02:57:40.710Z,2.85
2023-02-21T03:01:31.448Z,3.15
2023-02-21T03:05:16.575Z,2.17
2023-02-21T03:09:16.064Z,2.80
2023-02-21T03:13:14.100Z,2.58
2023-02-21T03:17:01.183Z,3.40
2023-02-21T03:20:45.070Z,3.75
2023-02-21T03:24:28.401Z,3.72
2023-02-21T03:28:10.333Z,3.47
2023-02-21T03:32:15.097Z,3.65
2023-02-21T03:36:00.404Z,3.58
2023-02-21T03:39:42.144Z,3.03
2023-02-21T03:43:23.888Z,3.28
2023-02-21T03:47:05.674Z,4.03
2023-02-21T03:50:47.444Z,2.55
2023-02-21T03:54:29.205Z,3.17
2023-02-21T03:58:10.952Z,3.78
2023-02-21T04:01:52.688Z,2.75
2023-02-21T04:05:34.445Z,2.83
2023-02-21T04:09:16.209Z,2.47
2023-02-21T04:12:57.981Z,4.25
2023-02-21T04:16:39.821Z,2.63
2023-02-21T04:20:21.598Z,3.90
2023-02-21T04:24:03.542Z,3.30
2023-02-21T04:27:45.278Z,3.45
2023-02-21T04:31:27.128Z,3.40
2023-02-21T04:35:08.911Z,3.88
2023-02-21T04:38:50.717Z,3.83
2023-02-21T04:42:32.433Z,3.60
2023-02-21T04:46:16.465Z,3.72
2023-02-21T04:49:58.734Z,4.47
2023-02-21T04:53:40.553Z,4.38
2023-02-21T04:57:22.377Z,4.32
2023-02-21T05:01:04.288Z,4.40
2023-02-21T05:04:46.058Z,4.38
2023-02-21T05:08:28.801Z,3.55
2023-02-21T05:12:11.528Z,5.78
2023-02-21T05:15:53.235Z,5.00
2023-02-21T05:19:35.020Z,3.97
2023-02-21T05:23:18.991Z,4.82
2023-02-21T05:27:01.425Z,4.18
2023-02-21T05:30:43.285Z,4.15
2023-02-21T05:34:25.069Z,4.68
2023-02-21T05:38:06.801Z,5.93
2023-02-21T05:41:50.293Z,4.22
2023-02-21T05:45:32.001Z,4.05
2023-02-21T05:49:13.782Z,5.50
2023-02-21T05:52:57.368Z,4.40
2023-02-21T05:56:43.380Z,5.78
2023-02-21T06:00:28.278Z,4.97
2023-02-21T06:04:10.065Z,4.35
2023-02-21T06:07:52.246Z,6.55
2023-02-21T06:11:37.615Z,5.90
2023-02-21T06:15:19.516Z,5.10
2023-02-21T06:19:01.613Z,7.32
2023-02-21T06:22:43.924Z,4.85
2023-02-21T06:26:26.135Z,5.22
2023-02-21T06:30:08.552Z,4.25
2023-02-21T06:33:50.610Z,4.85
2023-02-21T06:37:32.355Z,6.47
2023-02-21T06:41:16.683Z,5.10
2023-02-21T06:44:58.480Z,4.50
2023-02-21T06:48:40.224Z,7.38
2023-02-21T06:52:21.938Z,5.57
2023-02-21T06:56:04.752Z,7.25
2023-02-21T06:59:46.523Z,5.45
2023-02-21T07:03:28.487Z,6.60
2023-02-21T07:07:10.300Z,5.53
2023-02-21T07:10:52.350Z,7.95
2023-02-21T07:14:34.222Z,7.47
2023-02-21T07:18:16.004Z,6.68
2023-02-21T07:21:57.771Z,7.30
2023-02-21T07:25:39.487Z,5.68
2023-02-21T07:29:21.325Z,9.50
2023-02-21T07:33:03.239Z,8.73
2023-02-21T07:36:45.046Z,7.22
2023-02-21T07:40:26.943Z,7.65
2023-02-21T07:44:09.219Z,8.88
2023-02-21T07:47:51.724Z,8.48
2023-02-21T07:51:33.503Z,9.38
2023-02-21T07:55:15.243Z,7.82
2023-02-21T07:58:56.966Z,8.30
2023-02-21T08:02:38.758Z,8.00
2023-02-21T08:06:20.679Z,8.48
2023-02-21T08:10:02.453Z,9.73
2023-02-21T08:13:44.264Z,9.65
2023-02-21T08:17:26.494Z,11.68
2023-02-21T08:21:10.579Z,8.70
2023-02-21T08:24:52.318Z,9.63
2023-02-21T08:28:34.123Z,13.43
2023-02-21T08:32:15.896Z,11.85
2023-02-21T08:35:57.973Z,11.27
2023-02-21T08:39:39.705Z,13.25
2023-02-21T08:43:21.513Z,12.13
2023-02-21T08:47:03.360Z,14.77
2023-02-21T08:50:45.371Z,15.82
2023-02-21T08:54:27.124Z,14.82
2023-02-21T08:58:11.617Z,14.25
2023-02-21T09:01:53.498Z,12.40
2023-02-21T09:05:35.257Z,14.60
2023-02-21T09:09:17.005Z,13.25
2023-02-21T09:12:58.757Z,13.48
2023-02-21T09:16:40.715Z,12.57
2023-02-21T09:20:25.666Z,11.13
2023-02-21T09:24:07.521Z,13.85
2023-02-21T09:27:49.316Z,13.55
2023-02-21T09:31:31.115Z,15.50
2023-02-21T09:35:14.055Z,11.45
2023-02-21T09:38:56.181Z,14.50
2023-02-21T09:42:41.350Z,11.73
2023-02-21T09:46:41.117Z,16.35
2023-02-21T09:50:30.993Z,12.15
2023-02-21T09:54:19.313Z,14.60
2023-02-21T09:58:01.738Z,16.48
2023-02-21T10:02:09.513Z,13.27
2023-02-21T10:06:19.105Z,15.18
2023-02-21T10:10:33.378Z,13.82
2023-02-21T10:14:34.485Z,10.73
2023-02-21T10:18:32.524Z,13.45
2023-02-21T10:22:26.527Z,18.08
2023-02-21T10:26:11.883Z,34.78
2023-02-21T10:30:04.639Z,18.50
2023-02-21T10:33:46.595Z,18.33
2023-02-21T10:37:52.814Z,13.35
2023-02-21T10:41:39.216Z,13.63
2023-02-21T10:45:27.700Z,11.73
2023-02-21T10:49:52.294Z,11.10
2023-02-21T10:53:37.052Z,10.13
2023-02-21T10:57:18.804Z,10.90
2023-02-21T11:01:15.298Z,9.43
2023-02-21T11:05:10.615Z,11.13
2023-02-21T11:08:52.499Z,7.97
2023-02-21T11:12:34.347Z,8.15
2023-02-21T11:16:18.725Z,7.55
2023-02-21T11:20:20.612Z,7.68
2023-02-21T11:24:05.250Z,5.47
2023-02-21T11:28:06.666Z,6.22
2023-02-21T11:31:48.870Z,7.60
2023-02-21T11:35:35.662Z,5.63
2023-02-21T11:39:23.618Z,6.10
2023-02-21T11:43:27.199Z,7.85
2023-02-21T11:47:36.484Z,8.98
2023-02-21T11:51:46.469Z,6.45
2023-02-21T11:55:28.694Z,7.72
2023-02-21T11:59:19.421Z,7.15
2023-02-21T12:03:08.758Z,5.30
2023-02-21T12:07:19.628Z,6.13
2023-02-21T12:11:07.174Z,6.32
2023-02-21T12:15:08.844Z,5.65
2023-02-21T12:19:05.468Z,5.72
2023-02-21T12:23:08.311Z,5.43
2023-02-21T12:27:21.311Z,5.72
2023-02-21T12:31:05.812Z,7.38
2023-02-21T12:35:21.161Z,5.07
2023-02-21T12:39:27.862Z,5.05
2023-02-21T12:43:20.892Z,5.63
2023-02-21T12:47:16.226Z,4.82
2023-02-21T12:51:04.790Z,7.88
2023-02-21T12:55:12.341Z,6.00
2023-02-21T12:59:03.282Z,6.75
2023-02-21T13:03:22.813Z,4.05
2023-02-21T13:07:25.515Z,3.28
2023-02-21T13:11:29.491Z,3.30
2023-02-21T13:15:23.593Z,2.20
2023-02-21T13:19:10.500Z,3.03
2023-02-21T13:23:38.922Z,1.50
2023-02-21T13:27:56.146Z,2.05
2023-02-21T13:31:43.339Z,1.23
2023-02-21T13:35:34.065Z,1.75
2023-02-21T13:39:21.952Z,2.15
2023-02-21T13:43:17.986Z,0.90
2023-02-21T13:47:10.648Z,1.07
2023-02-21T13:50:55.406Z,2.38
2023-02-21T13:55:08.973Z,2.67
2023-02-21T13:58:50.783Z,2.22
2023-02-21T14:02:34.830Z,1.95
2023-02-21T14:06:29.089Z,1.42
2023-02-21T14:10:39.662Z,1.70
2023-02-21T14:14:29.810Z,3.83
2023-02-21T14:18:18.911Z,2.25
2023-02-21T14:22:20.966Z,3.28
2023-02-21T14:26:04.333Z,2.80
2023-02-21T14:30:11.659Z,2.50
2023-02-21T14:33:58.259Z,3.75
2023-02-21T14:37:51.060Z,2.20
2023-02-21T14:41:41.610Z,1.75
2023-02-21T14:45:43.435Z,2.40
2023-02-21T14:49:55.176Z,1.27
2023-02-21T14:54:14.853Z,4.05
2023-02-21T14:58:15.033Z,2.33
2023-02-21T15:02:15.488Z,2.40
2023-02-21T15:06:06.711Z,1.52
2023-02-21T15:10:17.541Z,2.30
2023-02-21T15:14:23.996Z,2.13
2023-02-21T15:18:08.744Z,2.83
2023-02-21T15:22:06.586Z,2.15
2023-02-21T15:25:57.061Z,3.20
2023-02-21T15:29:40.082Z,2.55
2023-02-21T15:33:23.237Z,2.38
2023-02-21T15:37:23.553Z,2.97
2023-02-21T15:41:23.944Z,1.63
2023-02-21T15:45:11.483Z,3.03
2023-02-21T15:48:55.911Z,2.55
2023-02-21T15:52:38.849Z,3.00
2023-02-21T15:56:24.129Z,2.45
2023-02-21T16:00:38.105Z,2.67
2023-02-21T16:04:22.740Z,3.33
2023-02-21T16:08:05.106Z,2.13
2023-02-21T16:12:01.248Z,2.80
2023-02-21T16:15:43.418Z,3.70
2023-02-21T16:19:25.261Z,2.90
2023-02-21T16:23:31.852Z,3.25
2023-02-21T16:27:16.683Z,3.92
2023-02-21T16:31:01.442Z,2.28
2023-02-21T16:34:43.216Z,2.92
2023-02-21T16:38:26.089Z,4.65
2023-02-21T16:42:08.165Z,3.28
2023-02-21T16:45:52.389Z,5.60
2023-02-21T16:49:35.338Z,5.75
2023-02-21T16:53:18.147Z,8.40
2023-02-21T16:56:59.924Z,8.05
2023-02-21T17:00:41.784Z,6.20
2023-02-21T17:04:29.719Z,7.70
2023-02-21T17:08:11.810Z,6.90
2023-02-21T17:11:54.152Z,6.07
2023-02-21T17:15:36.117Z,8.45
2023-02-21T17:19:21.235Z,10.93
2023-02-21T17:23:03.241Z,9.65
2023-02-21T17:26:45.423Z,9.65
2023-02-21T17:30:27.350Z,10.63
2023-02-21T17:34:09.141Z,12.35
2023-02-21T17:37:51.600Z,12.77
2023-02-21T17:41:33.600Z,9.88
2023-02-21T17:45:20.451Z,14.80
2023-02-21T17:49:02.221Z,14.00
2023-02-21T17:52:44.076Z,16.83
2023-02-21T17:56:25.914Z,13.95
2023-02-21T18:00:13.453Z,14.48
2023-02-21T18:03:55.270Z,14.27
2023-02-21T18:07:37.080Z,21.10
2023-02-21T18:11:19.035Z,17.88
2023-02-21T18:15:01.324Z,19.77
2023-02-21T18:18:43.526Z,18.65
2023-02-21T18:22:25.352Z,22.92
2023-02-21T18:26:07.123Z,22.23
2023-02-21T18:29:54.338Z,20.65
2023-02-21T18:33:36.117Z,25.58
2023-02-21T18:37:18.832Z,24.38
2023-02-21T18:41:02.051Z,23.65
2023-02-21T18:44:43.794Z,26.52
2023-02-21T18:48:27.044Z,24.27
2023-02-21T18:52:08.998Z,23.77
2023-02-21T18:55:50.775Z,28.85
2023-02-21T18:59:34.633Z,27.10
2023-02-21T19:03:16.489Z,28.80
2023-02-21T19:06:58.254Z,32.38
2023-02-21T19:10:40.014Z,28.02
2023-02-21T19:14:21.821Z,27.15
2023-02-21T19:18:03.891Z,31.33
2023-02-21T19:21:46.015Z,33.28
2023-02-21T19:25:28.216Z,28.23
2023-02-21T19:29:11.064Z,31.38
2023-02-21T19:32:52.862Z,30.20
2023-02-21T19:36:34.584Z,28.27
2023-02-21T19:40:17.109Z,32.90
2023-02-21T19:43:58.842Z,31.90
2023-02-21T19:47:40.577Z,32.17
2023-02-21T19:51:25.083Z,33.95
2023-02-21T19:55:08.024Z,29.45
2023-02-21T19:58:50.505Z,32.13
2023-02-21T20:02:32.966Z,34.58
2023-02-21T20:06:16.795Z,31.13
2023-02-21T20:10:00.184Z,35.75
2023-02-21T20:13:43.749Z,35.92
2023-02-21T20:17:27.427Z,38.60
2023-02-21T20:21:10.385Z,34.45
2023-02-21T20:24:52.183Z,36.33
2023-02-21T20:28:33.955Z,34.30
2023-02-21T20:32:18.440Z,36.47
2023-02-21T20:36:00.230Z,37.72
2023-02-21T20:39:42.047Z,37.55
2023-02-21T20:43:25.494Z,36.08
2023-02-21T20:47:09.854Z,37.60
2023-02-21T20:50:52.384Z,36.17
2023-02-21T20:54:34.261Z,37.60
2023-02-21T20:58:16.587Z,37.08
2023-02-21T21:01:59.133Z,37.20
2023-02-21T21:05:42.374Z,45.42
2023-02-21T21:09:34.427Z,38.33
2023-02-21T21:13:16.803Z,40.35
2023-02-21T21:16:59.919Z,39.50
2023-02-21T21:20:41.664Z,39.05
2023-02-21T21:24:23.412Z,37.45
2023-02-21T21:28:05.661Z,40.60
2023-02-21T21:31:52.781Z,38.60
2023-02-21T21:35:37.061Z,38.67
2023-02-21T21:39:23.212Z,36.35
2023-02-21T21:43:07.615Z,35.63
2023-02-21T21:46:50.841Z,35.42
2023-02-21T21:50:32.893Z,37.60
2023-02-21T21:54:16.552Z,33.20
2023-02-21T21:57:58.982Z,33.83
2023-02-21T22:01:41.163Z,31.33
2023-02-21T22:05:28.040Z,36.50
2023-02-21T22:09:15.226Z,37.20
2023-02-21T22:16:44.006Z,32.08
2023-02-21T22:20:31.061Z,32.30
2023-02-21T22:24:15.291Z,36.00
2023-02-21T22:27:58.299Z,36.63
2023-02-21T22:31:40.092Z,32.42
2023-02-21T22:35:21.867Z,37.05
2023-02-21T22:39:11.039Z,33.25
2023-02-21T22:42:59.436Z,33.92
2023-02-21T22:46:43.854Z,33.78
2023-02-21T22:50:26.650Z,38.25
2023-02-21T22:54:14.268Z,33.55
2023-02-21T22:57:58.343Z,31.35
2023-02-21T23:01:40.080Z,33.33
2023-02-21T23:05:22.151Z,34.60
2023-02-21T23:09:12.117Z,35.92
2023-02-21T23:12:58.184Z,37.50
2023-02-21T23:16:40.691Z,32.90
2023-02-21T23:20:29.768Z,33.38
2023-02-21T23:24:12.628Z,32.95
2023-02-21T23:28:04.370Z,39.47
2023-02-21T23:31:47.608Z,39.05
2023-02-21T23:35:29.486Z,34.55
2023-02-21T23:39:15.057Z,31.63
2023-02-21T23:42:57.248Z,34.95
2023-02-21T23:46:42.461Z,34.72
2023-02-21T23:50:30.618Z,39.47
2023-02-21T23:54:13.710Z,36.10
2023-02-21T23:57:59.807Z,41.38
